createdAt,value
2023-01-10T00:00:25.194Z,72.48
2023-01-10T00:03:26.576Z,71.91
2023-01-10T00:06:29.144Z,72.90
2023-01-10T00:09:31.738Z,72.87
2023-01-10T00:12:51.145Z,72.55
2023-01-10T00:15:56.819Z,73.24
2023-01-10T00:18:58.159Z,72.84
2023-01-10T00:22:14.107Z,72.63
2023-01-10T00:25:15.627Z,72.97
2023-01-10T00:28:20.594Z,73.52
2023-01-10T00:31:22.697Z,73.46
2023-01-10T00:34:25.839Z,73.92
2023-01-10T00:37:28.456Z,73.74
2023-01-10T00:40:31.073Z,74.20
2023-01-10T00:43:50.818Z,73.70
2023-01-10T00:46:54.456Z,74.10
2023-01-10T00:49:55.813Z,73.17
2023-01-10T00:52:58.436Z,73.94
2023-01-10T00:56:01.056Z,74.18
2023-01-10T00:59:03.003Z,74.38
2023-01-10T01:02:06.333Z,74.07
2023-01-10T01:05:08.569Z,73.67
2023-01-10T01:08:12.659Z,73.69
2023-01-10T01:11:15.224Z,74.07
2023-01-10T01:14:16.532Z,74.13
2023-01-10T01:17:20.356Z,74.27
2023-01-10T01:20:21.861Z,74.55
2023-01-10T01:23:25.309Z,73.99
2023-01-10T01:26:26.714Z,74.97
2023-01-10T01:29:42.423Z,74.43
2023-01-10T01:32:44.851Z,74.22
2023-01-10T01:35:49.426Z,75.03
2023-01-10T01:38:52.159Z,75.61
2023-01-10T01:41:59.798Z,75.65
2023-01-10T01:45:33.304Z,75.84
2023-01-10T01:48:37.678Z,75.92
2023-01-10T01:51:40.550Z,75.28
2023-01-10T01:54:43.533Z,76.35
2023-01-10T01:57:47.794Z,75.42
2023-01-10T02:00:49.347Z,75.75
2023-01-10T02:03:57.874Z,76.90
2023-01-10T02:06:59.539Z,77.28
2023-01-10T02:13:27.977Z,76.29
2023-01-10T02:16:30.564Z,76.33
2023-01-10T02:19:47.809Z,76.58
2023-01-10T02:23:13.993Z,77.11
2023-01-10T02:26:42.472Z,77.23
2023-01-10T02:30:18.379Z,77.20
2023-01-10T02:33:25.707Z,76.75
2023-01-10T02:36:39.287Z,76.83
2023-01-10T02:39:53.793Z,76.97
2023-01-10T02:43:00.777Z,77.53
2023-01-10T02:46:07.374Z,77.59
2023-01-10T02:49:09.431Z,75.97
2023-01-10T02:52:14.183Z,77.05
2023-01-10T02:55:16.246Z,77.25
2023-01-10T02:58:33.100Z,78.42
2023-01-10T03:01:43.686Z,78.79
2023-01-10T03:04:55.479Z,79.34
2023-01-10T03:08:10.546Z,80.19
2023-01-10T03:11:13.203Z,79.58
2023-01-10T03:14:18.602Z,80.27
2023-01-10T03:17:23.765Z,80.93
2023-01-10T03:20:28.606Z,80.23
2023-01-10T03:23:34.350Z,80.49
2023-01-10T03:26:45.483Z,80.53
2023-01-10T03:29:54.233Z,80.07
2023-01-10T03:32:57.486Z,80.21
2023-01-10T03:36:14.322Z,80.21
2023-01-10T03:39:23.120Z,79.43
2023-01-10T03:42:53.255Z,80.53
2023-01-10T03:45:58.550Z,79.77
2023-01-10T03:49:03.677Z,79.93
2023-01-10T03:52:07.174Z,80.55
2023-01-10T03:55:12.611Z,80.21
2023-01-10T03:58:14.912Z,79.98
2023-01-10T04:01:16.506Z,78.82
2023-01-10T04:04:19.106Z,79.32
2023-01-10T04:07:21.263Z,80.27
2023-01-10T04:10:25.304Z,80.00
2023-01-10T04:13:26.965Z,80.32
2023-01-10T04:16:29.463Z,79.97
2023-01-10T04:22:52.011Z,79.66
2023-01-10T04:25:54.247Z,79.20
2023-01-10T04:28:55.866Z,79.45
2023-01-10T04:31:58.404Z,79.61
2023-01-10T04:35:00.626Z,79.55
2023-01-10T04:38:02.625Z,80.25
2023-01-10T04:41:05.146Z,79.86
2023-01-10T04:44:06.577Z,80.93
2023-01-10T04:47:08.326Z,80.72
2023-01-10T04:50:10.789Z,80.16
2023-01-10T04:53:13.398Z,79.86
2023-01-10T04:56:18.893Z,80.09
2023-01-10T04:59:20.390Z,80.73
2023-01-10T05:02:23.045Z,80.12
2023-01-10T05:05:24.961Z,80.55
2023-01-10T05:08:28.577Z,80.94
2023-01-10T05:11:29.871Z,80.49
2023-01-10T05:14:32.475Z,80.66
2023-01-10T05:17:33.932Z,80.27
2023-01-10T05:20:36.545Z,79.58
2023-01-10T05:23:39.294Z,80.63
2023-01-10T05:26:41.921Z,80.39
2023-01-10T05:29:43.739Z,80.26
2023-01-10T05:32:45.326Z,79.67
2023-01-10T05:35:46.663Z,80.44
2023-01-10T05:38:48.982Z,79.87
2023-01-10T05:41:51.537Z,79.05
2023-01-10T05:44:52.995Z,78.95
2023-01-10T05:47:55.522Z,79.37
2023-01-10T05:50:57.220Z,79.45
2023-01-10T05:53:59.168Z,78.77
2023-01-10T05:57:01.770Z,80.09
2023-01-10T06:00:05.207Z,79.26
2023-01-10T06:03:08.395Z,79.79
2023-01-10T06:06:11.647Z,79.29
2023-01-10T06:09:14.874Z,79.38
2023-01-10T06:12:17.868Z,79.44
2023-01-10T06:15:20.915Z,79.01
2023-01-10T06:18:22.229Z,79.45
2023-01-10T06:21:24.751Z,79.43
2023-01-10T06:24:26.732Z,79.38
2023-01-10T06:27:29.334Z,77.89
2023-01-10T06:30:32.052Z,78.87
2023-01-10T06:36:56.404Z,78.48
2023-01-10T06:39:58.675Z,78.69
2023-01-10T06:43:01.225Z,78.56
2023-01-10T06:46:02.583Z,77.92
2023-01-10T06:49:04.018Z,77.75
2023-01-10T06:52:06.742Z,78.18
2023-01-10T06:55:09.577Z,78.61
2023-01-10T06:58:12.465Z,78.44
2023-01-10T07:01:16.303Z,78.94
2023-01-10T07:04:19.215Z,78.96
2023-01-10T07:07:20.518Z,78.62
2023-01-10T07:10:24.056Z,78.59
2023-01-10T07:13:25.665Z,78.09
2023-01-10T07:16:28.507Z,78.88
2023-01-10T07:19:29.808Z,78.39
2023-01-10T07:22:32.322Z,78.85
2023-01-10T07:25:35.546Z,77.84
2023-01-10T07:28:38.511Z,78.60
2023-01-10T07:31:39.866Z,78.41
2023-01-10T07:34:41.321Z,78.98
2023-01-10T07:37:42.584Z,78.21
2023-01-10T07:40:45.839Z,78.21
2023-01-10T07:43:48.077Z,79.04
2023-01-10T07:46:49.911Z,78.94
2023-01-10T07:49:51.238Z,78.41
2023-01-10T07:52:52.806Z,78.63
2023-01-10T07:56:00.355Z,78.30
2023-01-10T07:59:01.680Z,78.25
2023-01-10T08:02:02.984Z,77.69
2023-01-10T08:05:06.436Z,77.46
2023-01-10T08:08:09.624Z,77.80
2023-01-10T08:11:11.639Z,78.79
2023-01-10T08:14:14.282Z,77.82
2023-01-10T08:17:15.705Z,77.06
2023-01-10T08:20:18.555Z,77.37
2023-01-10T08:23:21.217Z,78.02
2023-01-10T08:26:24.497Z,77.91
2023-01-10T08:29:27.103Z,77.77
2023-01-10T08:32:28.858Z,77.80
2023-01-10T08:35:31.464Z,78.49
2023-01-10T08:38:32.781Z,77.26
2023-01-10T08:41:34.790Z,77.53
2023-01-10T08:44:36.591Z,76.55
2023-01-10T08:47:38.100Z,77.49
2023-01-10T08:50:41.201Z,77.27
2023-01-10T08:53:42.476Z,76.75
2023-01-10T08:56:45.918Z,76.14
2023-01-10T08:59:47.239Z,76.42
2023-01-10T09:02:48.620Z,75.45
2023-01-10T09:05:51.241Z,76.59
2023-01-10T09:08:53.123Z,76.30
2023-01-10T09:11:58.010Z,75.40
2023-01-10T09:14:59.374Z,74.55
2023-01-10T09:18:03.238Z,74.97
2023-01-10T09:21:05.973Z,75.52
2023-01-10T09:24:07.685Z,76.15
2023-01-10T09:27:09.874Z,77.28
2023-01-10T09:30:12.714Z,76.86
2023-01-10T09:33:15.022Z,76.72
2023-01-10T09:36:16.342Z,77.88
2023-01-10T09:39:19.303Z,77.76
2023-01-10T09:42:35.271Z,76.99
2023-01-10T09:45:44.671Z,76.23
2023-01-10T09:48:51.991Z,76.02
2023-01-10T09:51:59.243Z,76.09
2023-01-10T09:55:14.310Z,76.17
2023-01-10T09:58:20.871Z,75.36
2023-01-10T10:01:27.353Z,74.44
2023-01-10T10:04:34.591Z,74.40
2023-01-10T10:07:36.180Z,75.05
2023-01-10T10:14:16.716Z,75.40
2023-01-10T10:17:33.362Z,76.00
2023-01-10T10:20:47.390Z,75.59
2023-01-10T10:24:16.470Z,73.24
2023-01-10T10:27:22.307Z,74.42
2023-01-10T10:30:36.751Z,73.33
2023-01-10T10:33:53.128Z,73.46
2023-01-10T10:36:58.960Z,72.76
2023-01-10T10:40:05.006Z,73.77
2023-01-10T10:43:15.652Z,72.29
2023-01-10T10:49:46.733Z,71.99
2023-01-10T10:52:49.370Z,72.65
2023-01-10T10:55:51.887Z,72.01
2023-01-10T10:58:57.989Z,71.64
2023-01-10T11:02:00.662Z,71.54
2023-01-10T11:08:30.386Z,71.07
2023-01-10T11:11:37.293Z,71.99
2023-01-10T11:14:45.176Z,70.83
2023-01-10T11:18:05.392Z,69.02
2023-01-10T11:21:13.479Z,69.00
2023-01-10T11:24:21.684Z,69.59
2023-01-10T11:27:27.897Z,68.38
2023-01-10T11:30:33.383Z,69.32
2023-01-10T11:33:36.843Z,67.87
2023-01-10T11:36:53.219Z,68.97
2023-01-10T11:40:18.394Z,68.72
2023-01-10T11:43:25.976Z,68.77
2023-01-10T11:46:28.179Z,68.97
2023-01-10T11:49:34.900Z,68.66
2023-01-10T11:52:44.368Z,69.32
2023-01-10T11:55:48.024Z,68.39
2023-01-10T11:58:50.750Z,67.92
2023-01-10T12:02:00.925Z,66.21
2023-01-10T12:05:07.505Z,65.82
2023-01-10T12:08:32.101Z,66.53
2023-01-10T12:11:35.112Z,65.89
2023-01-10T12:14:36.875Z,65.12
2023-01-10T12:21:00.043Z,66.49
2023-01-10T12:24:06.452Z,65.92
2023-01-10T12:27:12.338Z,66.00
2023-01-10T12:30:19.878Z,66.45
2023-01-10T12:33:25.456Z,66.87
2023-01-10T12:36:38.012Z,66.05
2023-01-10T12:39:45.808Z,66.67
2023-01-10T12:43:13.211Z,66.43
2023-01-10T12:46:41.035Z,67.79
2023-01-10T12:49:49.066Z,68.08
2023-01-10T12:52:58.796Z,67.97
2023-01-10T12:56:05.326Z,68.46
2023-01-10T12:59:16.202Z,67.46
2023-01-10T13:02:23.907Z,67.28
2023-01-10T13:05:27.339Z,66.99
2023-01-10T13:08:34.734Z,66.68
2023-01-10T13:11:44.293Z,65.74
2023-01-10T13:14:52.476Z,67.62
2023-01-10T13:17:59.241Z,67.87
2023-01-10T13:21:13.810Z,68.58
2023-01-10T13:24:28.297Z,68.97
2023-01-10T13:27:34.072Z,67.43
2023-01-10T13:30:42.682Z,67.17
2023-01-10T13:33:53.813Z,67.61
2023-01-10T13:36:58.009Z,67.98
2023-01-10T13:40:02.967Z,68.89
2023-01-10T13:43:34.946Z,68.26
2023-01-10T13:46:45.060Z,68.64
2023-01-10T13:49:47.967Z,68.44
2023-01-10T13:52:50.722Z,68.19
2023-01-10T13:55:56.193Z,68.42
2023-01-10T13:59:15.747Z,68.46
2023-01-10T14:05:52.120Z,67.88
2023-01-10T14:08:55.852Z,68.44
2023-01-10T14:11:59.628Z,68.18
2023-01-10T14:15:06.137Z,68.15
2023-01-10T14:18:18.898Z,68.14
2023-01-10T14:21:25.403Z,68.46
2023-01-10T14:24:30.295Z,68.97
2023-01-10T14:27:42.714Z,68.99
2023-01-10T14:30:45.460Z,68.92
2023-01-10T14:33:47.839Z,68.42
2023-01-10T14:36:57.101Z,69.70
2023-01-10T14:39:59.702Z,69.07
2023-01-10T14:43:08.406Z,68.78
2023-01-10T14:46:15.428Z,69.99
2023-01-10T14:49:24.535Z,70.34
2023-01-10T14:52:26.253Z,70.04
2023-01-10T14:55:28.937Z,70.30
2023-01-10T14:58:30.928Z,71.29
2023-01-10T15:04:55.669Z,69.65
2023-01-10T15:08:17.276Z,70.15
2023-01-10T15:11:19.575Z,69.61
2023-01-10T15:14:25.596Z,70.56
2023-01-10T15:17:27.675Z,70.97
2023-01-10T15:20:30.898Z,70.21
2023-01-10T15:23:36.236Z,70.18
2023-01-10T15:26:39.078Z,70.72
2023-01-10T15:29:43.977Z,71.02
2023-01-10T15:36:15.629Z,70.56
2023-01-10T15:39:22.983Z,71.08
2023-01-10T15:42:25.651Z,71.24
2023-01-10T15:45:36.773Z,71.47
2023-01-10T15:48:41.592Z,70.57
2023-01-10T15:51:47.583Z,71.75
2023-01-10T15:54:50.302Z,71.41
2023-01-10T15:57:51.783Z,71.80
2023-01-10T16:00:56.539Z,71.54
2023-01-10T16:04:01.132Z,71.59
2023-01-10T16:07:13.134Z,70.52
2023-01-10T16:13:40.858Z,71.51
2023-01-10T16:16:44.069Z,71.01
2023-01-10T16:19:46.640Z,70.61
2023-01-10T16:22:49.131Z,70.85
2023-01-10T16:25:52.764Z,70.24
2023-01-10T16:28:54.180Z,70.03
2023-01-10T16:31:56.370Z,69.10
2023-01-10T16:35:01.990Z,69.44
2023-01-10T16:38:03.594Z,68.54
2023-01-10T16:41:26.800Z,68.80
2023-01-10T16:44:28.500Z,69.18
2023-01-10T16:47:31.761Z,68.95
2023-01-10T16:50:34.404Z,68.36
2023-01-10T16:53:36.952Z,69.40
2023-01-10T16:56:38.282Z,70.60
2023-01-10T16:59:39.794Z,68.88
2023-01-10T17:02:43.262Z,69.55
2023-01-10T17:05:44.671Z,70.30
2023-01-10T17:08:47.378Z,68.93
2023-01-10T17:11:54.887Z,69.96
2023-01-10T17:14:56.363Z,68.95
2023-01-10T17:17:59.612Z,69.15
2023-01-10T17:21:01.072Z,70.20
2023-01-10T17:24:02.457Z,69.52
2023-01-10T17:27:04.075Z,69.00
2023-01-10T17:30:06.246Z,68.66
2023-01-10T17:33:11.284Z,69.67
2023-01-10T17:36:12.644Z,69.74
2023-01-10T17:39:14.435Z,69.80
2023-01-10T17:42:18.812Z,68.88
2023-01-10T17:45:20.312Z,69.38
2023-01-10T17:48:22.358Z,69.06
2023-01-10T17:51:24.310Z,68.96
2023-01-10T17:54:27.311Z,68.82
2023-01-10T17:57:29.097Z,69.62
2023-01-10T18:00:31.339Z,69.79
2023-01-10T18:03:33.392Z,70.30
2023-01-10T18:06:34.741Z,69.41
2023-01-10T18:09:37.369Z,69.67
2023-01-10T18:12:39.039Z,68.90
2023-01-10T18:15:43.365Z,69.69
2023-01-10T18:18:45.371Z,69.36
2023-01-10T18:21:48.578Z,69.88
2023-01-10T18:24:51.042Z,69.65
2023-01-10T18:27:52.650Z,69.23
2023-01-10T18:30:54.734Z,67.95
2023-01-10T18:33:57.677Z,69.10
2023-01-10T18:36:59.035Z,69.47
2023-01-10T18:40:00.392Z,69.25
2023-01-10T18:43:03.001Z,69.96
2023-01-10T18:46:07.947Z,70.13
2023-01-10T18:49:10.824Z,69.21
2023-01-10T18:52:13.474Z,70.47
2023-01-10T18:55:15.297Z,69.62
2023-01-10T18:58:17.852Z,70.58
2023-01-10T19:01:21.303Z,70.36
2023-01-10T19:04:23.629Z,70.66
2023-01-10T19:07:25.659Z,70.54
2023-01-10T19:10:26.989Z,69.83
2023-01-10T19:16:48.066Z,70.43
2023-01-10T19:19:50.099Z,69.81
2023-01-10T19:22:51.466Z,70.55
2023-01-10T19:25:56.013Z,70.47
2023-01-10T19:28:57.432Z,69.25
2023-01-10T19:32:01.036Z,69.92
2023-01-10T19:35:03.162Z,69.83
2023-01-10T19:38:05.730Z,70.34
2023-01-10T19:41:07.067Z,70.51
2023-01-10T19:44:13.544Z,70.75
2023-01-10T19:47:16.472Z,69.90
2023-01-10T19:50:18.835Z,70.78
2023-01-10T19:53:25.402Z,71.03
2023-01-10T19:56:26.853Z,69.72
2023-01-10T19:59:31.781Z,70.12
2023-01-10T20:02:33.938Z,70.43
2023-01-10T20:05:37.469Z,69.62
2023-01-10T20:08:38.809Z,68.89
2023-01-10T20:11:42.220Z,69.38
2023-01-10T20:14:43.527Z,69.61
2023-01-10T20:17:46.171Z,69.76
2023-01-10T20:20:48.610Z,69.97
2023-01-10T20:23:51.405Z,70.28
2023-01-10T20:26:52.805Z,69.77
2023-01-10T20:29:54.272Z,69.61
2023-01-10T20:32:55.589Z,69.90
2023-01-10T20:36:00.117Z,70.40
2023-01-10T20:39:02.995Z,69.15
2023-01-10T20:42:04.406Z,69.14
2023-01-10T20:45:08.797Z,69.41
2023-01-10T20:48:11.625Z,69.25
2023-01-10T20:51:15.548Z,70.06
2023-01-10T20:54:18.110Z,69.30
2023-01-10T20:57:20.280Z,70.31
2023-01-10T21:00:23.206Z,68.98
2023-01-10T21:03:24.980Z,69.83
2023-01-10T21:06:28.531Z,69.21
2023-01-10T21:09:31.143Z,68.71
2023-01-10T21:12:34.893Z,69.12
2023-01-10T21:15:38.595Z,68.67
2023-01-10T21:18:44.763Z,68.69
2023-01-10T21:21:46.735Z,67.50
2023-01-10T21:24:50.358Z,68.10
2023-01-10T21:27:51.749Z,68.31
2023-01-10T21:30:54.378Z,67.82
2023-01-10T21:33:55.686Z,67.71
2023-01-10T21:36:58.936Z,68.18
2023-01-10T21:40:00.304Z,68.49
2023-01-10T21:43:03.161Z,68.08
2023-01-10T21:46:23.955Z,69.10
2023-01-10T21:49:26.579Z,67.66
2023-01-10T21:52:28.521Z,67.77
2023-01-10T21:55:31.234Z,68.12
2023-01-10T21:58:32.781Z,67.87
2023-01-10T22:04:55.949Z,66.97
2023-01-10T22:07:59.394Z,68.07
2023-01-10T22:11:00.718Z,68.97
2023-01-10T22:14:03.324Z,67.92
2023-01-10T22:17:05.965Z,67.24
2023-01-10T22:20:08.937Z,67.63
2023-01-10T22:23:12.318Z,68.23
2023-01-10T22:26:15.572Z,68.74
2023-01-10T22:29:20.229Z,68.04
2023-01-10T22:32:21.563Z,67.79
2023-01-10T22:35:26.604Z,68.26
2023-01-10T22:38:30.334Z,68.13
2023-01-10T22:41:33.074Z,68.48
2023-01-10T22:44:34.350Z,68.24
2023-01-10T22:47:36.929Z,67.75
2023-01-10T22:50:38.825Z,68.11
2023-01-10T22:53:42.504Z,67.11
2023-01-10T22:56:46.541Z,67.30
2023-01-10T22:59:49.063Z,67.25
2023-01-10T23:02:51.690Z,66.22
2023-01-10T23:05:54.008Z,67.13
2023-01-10T23:08:57.613Z,65.34
2023-01-10T23:11:58.915Z,66.35
2023-01-10T23:15:01.472Z,66.23
2023-01-10T23:21:24.404Z,65.73
2023-01-10T23:24:27.741Z,65.91
2023-01-10T23:27:30.287Z,66.28
2023-01-10T23:30:31.649Z,65.65
2023-01-10T23:33:34.779Z,65.31
2023-01-10T23:36:36.090Z,65.42
2023-01-10T23:39:39.466Z,65.28
2023-01-10T23:42:42.025Z,65.75
2023-01-10T23:45:43.879Z,66.15
2023-01-10T23:48:48.802Z,64.83
2023-01-10T23:51:50.161Z,65.43
2023-01-10T23:54:53.933Z,65.65
2023-01-10T23:57:57.212Z,65.35
